createdAt,value
2022-10-15T00:06:08.314Z,55.84
2022-10-15T00:16:13.225Z,55.95
2022-10-15T00:26:37.414Z,55.93
2022-10-15T00:36:38.813Z,56.05
2022-10-15T00:46:46.821Z,56.07
2022-10-15T00:56:48.785Z,56.25
2022-10-15T01:06:52.682Z,56.18
2022-10-15T01:17:09.804Z,56.41
2022-10-15T01:27:34.700Z,56.56
2022-10-15T01:37:48.251Z,56.67
2022-10-15T01:47:51.892Z,56.82
2022-10-15T01:57:58.045Z,56.99
2022-10-15T02:08:18.828Z,56.71
2022-10-15T02:18:51.828Z,57.09
2022-10-15T02:28:56.038Z,57.11
2022-10-15T02:38:57.553Z,57.07
2022-10-15T02:48:59.022Z,57.37
2022-10-15T02:59:00.519Z,57.43
2022-10-15T03:09:01.933Z,57.65
2022-10-15T03:19:03.322Z,57.38
2022-10-15T03:29:04.707Z,57.51
2022-10-15T03:39:06.263Z,57.39
2022-10-15T03:49:07.637Z,57.26
2022-10-15T03:59:09.078Z,57.32
2022-10-15T04:09:10.696Z,57.86
2022-10-15T04:19:12.080Z,57.68
2022-10-15T04:29:13.453Z,58.02
2022-10-15T04:39:15.268Z,57.71
2022-10-15T04:49:16.649Z,57.57
2022-10-15T04:59:18.068Z,57.02
2022-10-15T05:09:19.462Z,56.80
2022-10-15T05:19:20.895Z,56.59
2022-10-15T05:29:22.256Z,56.53
2022-10-15T05:39:24.226Z,56.48
2022-10-15T05:49:25.618Z,56.12
2022-10-15T05:59:26.996Z,55.87
2022-10-15T06:09:28.374Z,55.54
2022-10-15T06:19:29.743Z,55.08
2022-10-15T06:29:31.103Z,55.00
2022-10-15T06:39:32.516Z,55.15
2022-10-15T06:49:33.909Z,54.94
2022-10-15T06:59:38.571Z,54.68
2022-10-15T07:09:42.653Z,54.14
2022-10-15T07:19:44.065Z,53.56
2022-10-15T07:29:45.435Z,53.01
2022-10-15T07:39:46.849Z,53.41
2022-10-15T07:49:48.268Z,52.83
2022-10-15T07:59:49.905Z,53.70
2022-10-15T08:09:51.647Z,53.10
2022-10-15T08:19:53.043Z,52.70
2022-10-15T08:29:58.896Z,52.37
2022-10-15T08:40:00.278Z,51.32
2022-10-15T08:50:18.123Z,51.19
2022-10-15T09:00:24.128Z,51.27
2022-10-15T09:10:51.320Z,51.32
2022-10-15T09:20:52.826Z,51.36
2022-10-15T09:30:55.728Z,52.63
2022-10-15T09:41:34.696Z,51.65
2022-10-15T09:51:45.645Z,51.08
2022-10-15T10:01:59.884Z,51.13
2022-10-15T10:12:03.379Z,50.86
2022-10-15T10:22:19.983Z,51.60
2022-10-15T10:32:23.954Z,52.59
2022-10-15T10:42:26.525Z,52.34
2022-10-15T10:52:36.210Z,52.11
2022-10-15T11:02:41.335Z,52.66
2022-10-15T11:12:54.792Z,52.32
2022-10-15T11:23:12.799Z,52.70
2022-10-15T11:33:35.878Z,52.26
2022-10-15T11:43:49.907Z,51.65
2022-10-15T11:54:13.262Z,52.16
2022-10-15T12:04:18.339Z,52.54
2022-10-15T12:14:37.238Z,52.40
2022-10-15T12:24:39.371Z,52.92
2022-10-15T12:34:41.002Z,52.67
2022-10-15T12:44:42.646Z,53.08
2022-10-15T12:54:47.170Z,51.31
2022-10-15T13:04:48.578Z,51.70
2022-10-15T13:14:52.836Z,52.82
2022-10-15T13:24:55.623Z,52.21
2022-10-15T13:34:57.486Z,51.58
2022-10-15T13:45:01.246Z,51.89
2022-10-15T13:55:02.642Z,52.14
2022-10-15T14:05:16.748Z,51.73
2022-10-15T14:15:47.274Z,51.76
2022-10-15T14:25:53.411Z,50.91
2022-10-15T14:36:22.215Z,51.22
2022-10-15T14:46:23.680Z,50.65
2022-10-15T14:56:29.688Z,50.73
2022-10-15T15:06:32.542Z,51.14
2022-10-15T15:16:33.923Z,51.54
2022-10-15T15:26:35.443Z,51.92
2022-10-15T15:36:36.818Z,53.78
2022-10-15T15:46:38.195Z,53.81
2022-10-15T15:56:40.954Z,53.06
2022-10-15T16:06:42.428Z,54.45
2022-10-15T16:16:44.024Z,54.62
2022-10-15T16:26:45.486Z,54.91
2022-10-15T16:36:46.917Z,54.99
2022-10-15T16:46:48.321Z,54.80
2022-10-15T16:56:52.760Z,54.56
2022-10-15T17:06:54.363Z,54.80
2022-10-15T17:16:55.818Z,54.62
2022-10-15T17:26:57.946Z,54.33
2022-10-15T17:36:59.408Z,53.99
2022-10-15T17:47:00.795Z,54.05
2022-10-15T17:57:02.375Z,54.02
2022-10-15T18:07:03.874Z,53.85
2022-10-15T18:17:05.307Z,53.53
2022-10-15T18:27:06.696Z,53.24
2022-10-15T18:37:08.257Z,52.89
2022-10-15T18:47:10.545Z,53.29
2022-10-15T18:57:12.072Z,52.98
2022-10-15T19:07:13.497Z,53.33
2022-10-15T19:17:14.963Z,53.16
2022-10-15T19:27:16.359Z,53.25
2022-10-15T19:37:17.804Z,53.15
2022-10-15T19:47:20.911Z,53.22
2022-10-15T19:57:23.158Z,53.62
2022-10-15T20:07:24.809Z,54.00
2022-10-15T20:17:26.842Z,53.86
2022-10-15T20:27:28.666Z,53.71
2022-10-15T20:37:30.102Z,53.67
2022-10-15T20:47:32.411Z,53.67
2022-10-15T20:57:33.801Z,54.12
2022-10-15T21:07:35.307Z,54.36
2022-10-15T21:17:36.687Z,54.26
2022-10-15T21:27:38.377Z,54.00
2022-10-15T21:37:39.755Z,54.19
2022-10-15T21:47:41.156Z,54.30
2022-10-15T21:57:42.543Z,54.07
2022-10-15T22:07:43.919Z,53.93
2022-10-15T22:17:45.293Z,53.83
2022-10-15T22:27:46.662Z,53.81
2022-10-15T22:37:48.063Z,53.44
2022-10-15T22:47:49.460Z,53.40
2022-10-15T22:57:52.192Z,53.42
2022-10-15T23:07:53.661Z,53.58
2022-10-15T23:17:56.827Z,53.41
2022-10-15T23:27:58.297Z,53.46
2022-10-15T23:37:59.698Z,53.31
2022-10-15T23:48:01.076Z,53.82
2022-10-15T23:58:04.721Z,54.17
